Terminal Aerodrome Forecast
Issued by NWS

Home | Current Version | Previous Version | Text Only | Print | Product List | Glossary On
Versions: 1 2 3 4 5 6 7 8 9 10 11 12 13 14 15 16 17 18 19
000
FTUS43 KICT 161021 AAA
TAFCNU
TAF AMD
KCNU 161021Z 1610/1706 12006KT 3SM BR BKN006
      TEMPO 1611/1613 1SM BR OVC003
     FM161500 15012KT P6SM SCT020 BKN035
     FM170100 09006KT P6SM SCT030=

USA.gov is the U.S. government's official web portal to all federal, state and local government web resources and services.